CDT,Max TemperatureF,Mean TemperatureF,Min TemperatureF,Max Dew PointF,MeanDew PointF,Min DewpointF,Max Humidity, Mean Humidity, Min Humidity, Max Sea Level PressureIn, Mean Sea Level PressureIn, Min Sea Level PressureIn, Max VisibilityMiles, Mean VisibilityMiles, Min VisibilityMiles, Max Wind SpeedMPH, Mean Wind SpeedMPH, Max Gust SpeedMPH,PrecipitationIn, CloudCover, Events, WindDirDegrees
2013-3-1,27,20,13,22,19,10,88,50,12,30.33,30.24,30.13,10,10,7,15,11,17,T,7,,359
2013-3-2,24,12,-1,17,9,-2,96,82,68,30.36,30.31,30.23,10,9,5,10,5,12,0.00,1,,304
2013-3-3,30,22,14,21,16,11,88,73,58,30.21,30.08,29.96,10,9,2,20,10,24,T,6,Snow,125
2013-3-4,33,29,24,28,24,19,100,88,75,29.99,29.91,29.83,10,5,1,20,17,,0.02,8,Snow,104
2013-3-5,30,27,24,25,24,20,92,85,78,30.28,30.02,29.92,10,4,1,24,16,30,0.09,8,Snow,316
2013-3-6,27,16,5,21,16,3,92,83,74,30.43,30.36,30.25,10,9,1,21,10,25,0.00,6,,333
2013-3-7,27,13,-1,21,10,-4,100,91,81,30.43,30.38,30.34,8,4,0,15,6,17,0.00,1,Fog,108
2013-3-8,39,31,22,33,27,20,92,81,70,30.34,30.26,30.10,10,7,5,24,15,30,T,1,Rain,131
2013-3-9,37,36,34,36,35,32,100,91,82,30.06,29.82,29.66,8,3,0,24,13,29,0.58,8,Fog-Rain,134
2013-3-10,36,34,32,36,33,30,100,96,92,29.77,29.68,29.62,10,4,0,24,16,31,0.73,8,Fog-Rain-Snow,5
2013-3-11,32,28,23,31,26,20,92,84,75,29.94,29.75,29.67,10,6,2,25,17,30,0.01,8,Rain-Snow,328
2013-3-12,32,26,20,27,21,16,92,81,69,30.23,30.04,29.94,10,7,1,30,18,35,T,6,Snow,284
2013-3-13,28,22,15,20,16,12,92,80,68,30.46,30.38,30.24,10,10,8,22,9,25,0.00,0,,301
2013-3-14,42,33,23,32,27,20,92,80,67,30.34,30.16,30.06,10,9,5,23,8,28,0.01,2,,166
2013-3-15,46,38,29,40,32,27,100,88,76,30.05,29.87,29.75,8,4,2,16,6,18,0.00,2,,92
2013-3-16,34,29,24,34,25,18,100,83,66,30.22,30.02,29.80,10,8,1,28,15,32,0.00,6,,347
2013-3-17,37,29,20,27,22,14,81,69,56,30.22,30.03,29.85,10,10,10,23,15,29,T,3,,102
2013-3-18,33,25,16,30,22,9,100,84,67,29.99,29.79,29.68,10,4,0,35,20,41,0.10,7,Fog-Snow,245
2013-3-19,30,21,12,21,12,5,76,67,57,30.27,30.16,29.98,10,10,5,22,16,31,T,2,Snow,300
2013-3-20,25,19,12,12,8,3,76,67,57,30.33,30.26,30.18,10,10,10,30,20,37,0.00,2,,316
2013-3-21,30,19,7,17,10,3,84,67,50,30.17,30.10,30.04,10,10,10,13,5,16,0.00,0,,18
2013-3-22,35,25,15,24,18,12,88,72,56,30.11,30.08,30.04,10,10,10,12,5,32,0.00,2,,28
2013-3-23,39,31,23,25,23,20,88,70,52,30.14,30.10,30.04,10,10,4,16,9,20,T,3,Snow,19
2013-3-24,31,30,28,28,27,25,92,85,78,30.05,29.92,29.86,9,3,1,22,16,26,T,8,Snow,351
2013-3-25,36,31,26,27,24,19,92,74,56,30.25,30.05,29.93,10,8,2,25,15,33,T,5,Snow,340
2013-3-26,39,31,23,27,23,20,88,71,54,30.34,30.31,30.25,10,10,10,17,8,21,0.00,2,,298
2013-3-27,43,33,22,27,24,21,96,73,49,30.37,30.33,30.29,10,10,8,10,4,15,0.00,0,,128
2013-3-28,51,39,27,35,30,25,92,72,52,30.35,30.31,30.25,10,10,10,13,7,16,0.00,2,,105
2013-3-29,57,44,30,38,33,28,92,68,43,30.31,30.24,30.15,10,10,7,15,8,18,0.00,0,,124
2013-3-30,51,42,33,49,43,32,100,87,73,30.12,29.93,29.86,10,3,0,18,8,23,0.21,6,Fog-Rain,200
2013-3-31,48,38,28,38,32,21,100,77,53,30.09,29.92,29.87,10,5,0,31,16,36,0.00,4,Fog,305